Terminal Aerodrome Forecast
Issued by NWS

Home | Current Version | Previous Version | Text Only | Print | Product List | Glossary On
Versions: 1 2 3 4 5 6 7 8 9 10 11 12 13 14 15 16 17 18 19 20 21 22 23 24 25 26 27 28 29 30 31 32
000
FTUS45 KSLC 270524
TAF36U
TAF
K36U 270524Z 2706/2806 VRB04KT P6SM SCT070 BKN110
     FM271900 24010KT P6SM VCSH SCT100 BKN120
     FM280200 VRB04KT P6SM SCT100 SCT120=

USA.gov is the U.S. government's official web portal to all federal, state and local government web resources and services.